Murden — AELE — position and weather

sailwx.info

Track history (hours):
 
Tides and Currents Weather Stations Pressure Air Temp Water Temp Dewpoint Dewpoint Depression Visibility Wind Speed Wind Dir Waves Ship Positions

Murden

Last reported at 2018-Jul-22 14:40 UTC. Time now 2018-Jul-23 15:08 UTC.
Position N 27°06' W 080°06'.

Length 50 m; draft 1.8 m.

Type: Other ship. MMSI: 369970571.

Date/timePositionNaut miles runAvg speedWind from/ knotsBaromVisibWave heightAir tempDewpointWater temp
2018-Jul-22 14:40N 27°06' W 080°06'1 7.8
2018-Jul-22 14:29N 27°05' W 080°05'4 7.8
2018-Jul-22 14:01N 27°01' W 080°04'1 2.9
2018-Jul-22 13:30N 27°03' W 080°04'3 0.2
2018-Jul-21 20:30N 27°06' W 080°06'4 7.5
2018-Jul-21 20:01N 27°02' W 080°04'3 0.7
2018-Jul-21 15:07N 27°06' W 080°06'1 7.7
2018-Jul-21 15:01N 27°05' W 080°05'4 7.7
2018-Jul-21 14:29N 27°01' W 080°04'1 3.2
2018-Jul-21 14:00N 27°02' W 080°04'4 0.2
2018-Jul-20 20:41N 27°06' W 080°06'5 8.3
2018-Jul-20 20:02N 27°01' W 080°03'0 1.0
2018-Jul-20 20:00N 27°01' W 080°03'5 1.1
2018-Jul-20 15:13N 27°06' W 080°06'5 8.3
2018-Jul-20 14:35N 27°01' W 080°04'0 2.1
2018-Jul-20 14:27N 27°01' W 080°03'5 0.3
2018-Jul-19 20:37N 27°06' W 080°06'1 8.8
2018-Jul-19 20:30N 27°05' W 080°05'4 8.3
2018-Jul-19 20:00N 27°01' W 080°03'5 1.1
2018-Jul-19 14:59N 27°06' W 080°06'5 8.8
2018-Jul-19 14:29N 27°02' W 080°04'1 0.0
2018-Jul-17 19:46N 27°01' W 080°03'6 0.2
2018-Jul-16 20:25N 27°06' W 080°06'4 9.2
2018-Jul-16 20:00N 27°03' W 080°04'3 0.6
2018-Jul-16 15:06N 27°05' W 080°06'1 9.1
2018-Jul-16 15:00N 27°05' W 080°05'4 8.1
2018-Jul-16 14:31N 27°01' W 080°04'5 0.3
2018-Jul-15 20:11N 27°06' W 080°06'1 8.8
2018-Jul-15 20:01N 27°05' W 080°05'4 8.1
2018-Jul-15 19:30N 27°01' W 080°03'6 1.3
2018-Jul-15 15:03N 27°06' W 080°06'1 8.9
2018-Jul-15 14:58N 27°05' W 080°06'4 8.0
2018-Jul-15 14:29N 27°02' W 080°04'0 0.6
2018-Jul-15 13:58N 27°02' W 080°04'4 0.2
2018-Jul-14 20:20N 27°06' W 080°05'3 8.9
2018-Jul-14 20:01N 27°03' W 080°04'1 1.5
2018-Jul-14 19:29N 27°02' W 080°04'4 0.9
2018-Jul-14 14:56N 27°06' W 080°05'4 8.7
2018-Jul-14 14:29N 27°03' W 080°03'3 0.2
2018-Jul-13 20:04N 27°05' W 080°05'1 9.3
2018-Jul-13 20:00N 27°04' W 080°05'4 7.9
2018-Jul-13 19:30N 27°01' W 080°03'6 1.5
2018-Jul-13 15:12N 27°07' W 080°06'2 8.8
2018-Jul-13 15:00N 27°05' W 080°05'5 9.1
2018-Jul-13 14:30N 27°01' W 080°03'11 3.9
2018-Jul-13 11:35N 27°10' W 080°11'7 0.5
2018-Jul-12 20:53N 27°05' W 080°05'4 9.0
2018-Jul-12 20:29N 27°01' W 080°03'6 1.1
2018-Jul-12 15:11N 27°07' W 080°06'2 8.8
2018-Jul-12 15:00N 27°05' W 080°05'  
Track history (hours):
 
Tides and Currents Weather Stations Pressure Air Temp Water Temp Dewpoint Dewpoint Depression Visibility Wind Speed Wind Dir Waves Ship Positions

Murden

Last reported at 2018-Jul-22 14:40 UTC. Time now 2018-Jul-23 15:08 UTC.
Position N 27°06' W 080°06'.

Length 50 m; draft 1.8 m.

Type: Other ship. MMSI: 369970571.

Date/timePositionNaut miles runAvg speedWind from/ knotsBaromVisibWave heightAir tempDewpointWater temp
2018-Jul-22 14:40N 27°06' W 080°06'1 7.8
2018-Jul-22 14:29N 27°05' W 080°05'4 7.8
2018-Jul-22 14:01N 27°01' W 080°04'1 2.9
2018-Jul-22 13:30N 27°03' W 080°04'3 0.2
2018-Jul-21 20:30N 27°06' W 080°06'4 7.5
2018-Jul-21 20:01N 27°02' W 080°04'3 0.7
2018-Jul-21 15:07N 27°06' W 080°06'1 7.7
2018-Jul-21 15:01N 27°05' W 080°05'4 7.7
2018-Jul-21 14:29N 27°01' W 080°04'1 3.2
2018-Jul-21 14:00N 27°02' W 080°04'4 0.2
2018-Jul-20 20:41N 27°06' W 080°06'5 8.3
2018-Jul-20 20:02N 27°01' W 080°03'0 1.0
2018-Jul-20 20:00N 27°01' W 080°03'5 1.1
2018-Jul-20 15:13N 27°06' W 080°06'5 8.3
2018-Jul-20 14:35N 27°01' W 080°04'0 2.1
2018-Jul-20 14:27N 27°01' W 080°03'5 0.3
2018-Jul-19 20:37N 27°06' W 080°06'1 8.8
2018-Jul-19 20:30N 27°05' W 080°05'4 8.3
2018-Jul-19 20:00N 27°01' W 080°03'5 1.1
2018-Jul-19 14:59N 27°06' W 080°06'5 8.8
2018-Jul-19 14:29N 27°02' W 080°04'1 0.0
2018-Jul-17 19:46N 27°01' W 080°03'6 0.2
2018-Jul-16 20:25N 27°06' W 080°06'4 9.2
2018-Jul-16 20:00N 27°03' W 080°04'3 0.6
2018-Jul-16 15:06N 27°05' W 080°06'1 9.1
2018-Jul-16 15:00N 27°05' W 080°05'4 8.1
2018-Jul-16 14:31N 27°01' W 080°04'5 0.3
2018-Jul-15 20:11N 27°06' W 080°06'1 8.8
2018-Jul-15 20:01N 27°05' W 080°05'4 8.1
2018-Jul-15 19:30N 27°01' W 080°03'6 1.3
2018-Jul-15 15:03N 27°06' W 080°06'1 8.9
2018-Jul-15 14:58N 27°05' W 080°06'4 8.0
2018-Jul-15 14:29N 27°02' W 080°04'0 0.6
2018-Jul-15 13:58N 27°02' W 080°04'4 0.2
2018-Jul-14 20:20N 27°06' W 080°05'3 8.9
2018-Jul-14 20:01N 27°03' W 080°04'1 1.5
2018-Jul-14 19:29N 27°02' W 080°04'4 0.9
2018-Jul-14 14:56N 27°06' W 080°05'4 8.7
2018-Jul-14 14:29N 27°03' W 080°03'3 0.2
2018-Jul-13 20:04N 27°05' W 080°05'1 9.3
2018-Jul-13 20:00N 27°04' W 080°05'4 7.9
2018-Jul-13 19:30N 27°01' W 080°03'6 1.5
2018-Jul-13 15:12N 27°07' W 080°06'2 8.8
2018-Jul-13 15:00N 27°05' W 080°05'5 9.1
2018-Jul-13 14:30N 27°01' W 080°03'11 3.9
2018-Jul-13 11:35N 27°10' W 080°11'7 0.5
2018-Jul-12 20:53N 27°05' W 080°05'4 9.0
2018-Jul-12 20:29N 27°01' W 080°03'6 1.1
2018-Jul-12 15:11N 27°07' W 080°06'2 8.8
2018-Jul-12 15:00N 27°05' W 080°05'  

Dump ship's entire track history